Time;durP1;ratioP1;P1;durP2;ratioP2;P2;SDS_P1;SDS_P2;PMS_P1;PMS_P2;Temp;Humidity;BMP_temperature;BMP_pressure;BME280_temperature;BME280_humidity;BME280_pressure;Samples;Min_cycle;Max_cycle;Signal;HPM_P1;HPM_P2
2023/09/23 00:02:17;;;;;;;12.20;8.82;;;;;;;;;;5029993;28;20106;-72
2023/09/23 00:04:43;;;;;;;14.88;9.45;;;;;;;;;;5029394;28;20081;-72
2023/09/23 00:07:10;;;;;;;14.32;9.43;;;;;;;;;;5032353;28;20119;-72
2023/09/23 00:09:36;;;;;;;14.18;9.18;;;;;;;;;;5030143;28;20044;-72
2023/09/23 00:12:03;;;;;;;13.88;10.02;;;;;;;;;;5019304;28;20067;-72
2023/09/23 00:14:29;;;;;;;16.55;9.60;;;;;;;;;;5018126;28;20059;-72
2023/09/23 00:16:55;;;;;;;15.52;9.13;;;;;;;;;;5003676;28;20063;-73
2023/09/23 00:19:21;;;;;;;13.48;8.45;;;;;;;;;;5012124;28;20044;-72
2023/09/23 00:21:49;;;;;;;14.10;9.25;;;;;;;;;;5032684;28;20740;-72
2023/09/23 00:24:15;;;;;;;12.38;8.63;;;;;;;;;;5031580;28;20045;-72
2023/09/23 00:26:42;;;;;;;16.15;9.98;;;;;;;;;;5031279;28;20040;-72
2023/09/23 00:29:08;;;;;;;13.50;9.30;;;;;;;;;;5031973;28;20045;-72
2023/09/23 00:31:34;;;;;;;12.07;8.98;;;;;;;;;;5029364;28;20048;-72
2023/09/23 00:34:00;;;;;;;14.43;8.43;;;;;;;;;;5027578;28;20036;-72
2023/09/23 00:36:26;;;;;;;13.55;9.02;;;;;;;;;;5024354;28;20094;-72
2023/09/23 00:38:52;;;;;;;12.73;8.20;;;;;;;;;;5029251;28;20130;-72
2023/09/23 00:41:18;;;;;;;11.23;8.07;;;;;;;;;;5035929;28;20045;-72
2023/09/23 00:43:47;;;;;;;13.25;8.85;;;;;;;;;;5029392;28;20148;-72
2023/09/23 00:46:18;;;;;;;15.98;8.65;;;;;;;;;;5026691;28;20075;-72
2023/09/23 00:48:45;;;;;;;10.02;7.65;;;;;;;;;;5036136;28;20099;-72
2023/09/23 00:51:11;;;;;;;23.88;8.98;;;;;;;;;;5025400;28;20109;-72
2023/09/23 00:53:42;;;;;;;11.63;8.43;;;;;;;;;;5031549;28;20235;-72
2023/09/23 00:56:08;;;;;;;11.50;8.70;;;;;;;;;;5030394;28;20040;-72
2023/09/23 00:58:38;;;;;;;13.05;8.52;;;;;;;;;;5030800;28;20055;-72
2023/09/23 01:01:08;;;;;;;14.07;8.07;;;;;;;;;;5028300;28;20045;-72
2023/09/23 01:03:37;;;;;;;12.23;7.95;;;;;;;;;;5011344;28;20377;-72
2023/09/23 01:06:05;;;;;;;11.90;8.25;;;;;;;;;;5027370;28;20037;-72
2023/09/23 01:08:31;;;;;;;9.75;7.63;;;;;;;;;;5030258;28;20048;-72
2023/09/23 01:10:57;;;;;;;11.65;7.40;;;;;;;;;;5029069;28;20056;-72
2023/09/23 01:13:24;;;;;;;9.80;7.50;;;;;;;;;;5029997;28;20041;-72
2023/09/23 01:15:51;;;;;;;10.57;6.80;;;;;;;;;;5030918;28;20052;-72
2023/09/23 01:18:17;;;;;;;7.75;6.68;;;;;;;;;;5031538;28;20094;-72
2023/09/23 01:20:48;;;;;;;10.30;6.93;;;;;;;;;;5031570;28;20053;-72
2023/09/23 01:23:15;;;;;;;7.60;5.00;;;;;;;;;;5031084;28;20045;-73
2023/09/23 01:25:41;;;;;;;7.05;5.82;;;;;;;;;;5030925;28;20055;-72
2023/09/23 01:28:14;;;;;;;6.85;4.90;;;;;;;;;;5026609;28;20048;-72
2023/09/23 01:30:40;;;;;;;11.40;5.00;;;;;;;;;;5027276;28;20167;-72
2023/09/23 01:33:10;;;;;;;5.18;3.83;;;;;;;;;;5033122;28;20709;-72
2023/09/23 01:35:36;;;;;;;3.83;3.38;;;;;;;;;;5032659;28;20081;-72
2023/09/23 01:38:06;;;;;;;8.45;4.43;;;;;;;;;;5031725;28;20066;-73
2023/09/23 01:40:32;;;;;;;6.43;3.50;;;;;;;;;;5035945;28;20094;-73
2023/09/23 01:42:59;;;;;;;4.88;2.97;;;;;;;;;;5034446;28;20049;-73
2023/09/23 01:45:28;;;;;;;3.90;3.50;;;;;;;;;;5031720;28;20033;-73
2023/09/23 01:47:57;;;;;;;6.10;2.90;;;;;;;;;;5033898;28;20592;-72
2023/09/23 01:50:24;;;;;;;3.30;2.92;;;;;;;;;;5033487;28;20068;-71
2023/09/23 01:52:50;;;;;;;3.60;3.03;;;;;;;;;;5033468;28;20049;-71
2023/09/23 01:55:19;;;;;;;5.30;3.20;;;;;;;;;;5029460;28;20039;-72
2023/09/23 01:57:47;;;;;;;4.35;3.03;;;;;;;;;;5031037;28;20090;-72
2023/09/23 02:00:34;;;;;;;6.45;3.75;;;;;;;;;;5031293;28;20489;-71
2023/09/23 02:03:00;;;;;;;4.63;2.88;;;;;;;;;;5030456;28;20056;-72
2023/09/23 02:05:29;;;;;;;7.22;2.80;;;;;;;;;;5030026;28;20050;-72
2023/09/23 02:07:55;;;;;;;2.80;2.60;;;;;;;;;;5034522;28;20427;-72
2023/09/23 02:10:24;;;;;;;3.00;2.30;;;;;;;;;;5032399;28;20102;-72
2023/09/23 02:12:50;;;;;;;2.97;2.67;;;;;;;;;;5030062;28;20105;-72
2023/09/23 02:15:16;;;;;;;3.95;2.78;;;;;;;;;;5017868;28;20059;-72
2023/09/23 02:17:43;;;;;;;4.65;2.75;;;;;;;;;;5033862;28;20070;-72
2023/09/23 02:20:11;;;;;;;3.95;2.40;;;;;;;;;;5033774;28;20048;-72
2023/09/23 02:22:37;;;;;;;3.90;2.47;;;;;;;;;;5032930;28;20052;-72
2023/09/23 02:25:04;;;;;;;2.67;2.38;;;;;;;;;;5031125;28;21495;-72
2023/09/23 02:27:31;;;;;;;3.00;2.15;;;;;;;;;;5033430;28;21864;-72
2023/09/23 02:29:57;;;;;;;2.35;2.15;;;;;;;;;;5034560;28;21258;-71
2023/09/23 02:32:23;;;;;;;4.13;2.25;;;;;;;;;;5032200;28;20060;-72
2023/09/23 02:34:49;;;;;;;3.00;2.22;;;;;;;;;;5033182;28;20063;-72
2023/09/23 02:37:15;;;;;;;2.13;1.92;;;;;;;;;;5033752;28;20062;-72
2023/09/23 02:39:41;;;;;;;2.50;2.05;;;;;;;;;;5035295;28;20154;-72
2023/09/23 02:42:08;;;;;;;4.93;1.80;;;;;;;;;;5033049;28;20049;-72
2023/09/23 02:44:35;;;;;;;2.78;2.08;;;;;;;;;;5030977;28;20084;-72
2023/09/23 02:47:02;;;;;;;2.30;2.10;;;;;;;;;;5033341;28;20099;-72
2023/09/23 02:49:28;;;;;;;4.50;2.08;;;;;;;;;;5034346;28;20479;-72
2023/09/23 02:51:54;;;;;;;1.85;1.75;;;;;;;;;;5034618;28;20049;-73
2023/09/23 02:54:20;;;;;;;3.10;2.30;;;;;;;;;;5033709;28;20390;-72
2023/09/23 02:56:47;;;;;;;5.13;2.50;;;;;;;;;;5021542;28;20560;-72
2023/09/23 02:59:21;;;;;;;3.80;2.30;;;;;;;;;;5030760;28;20045;-72
2023/09/23 03:01:53;;;;;;;2.35;2.15;;;;;;;;;;5032996;28;20041;-72
2023/09/23 03:04:25;;;;;;;2.38;1.90;;;;;;;;;;5031069;28;20170;-72
2023/09/23 03:06:59;;;;;;;3.30;2.63;;;;;;;;;;5032189;28;20059;-72
2023/09/23 03:09:28;;;;;;;2.75;2.20;;;;;;;;;;5031345;28;20052;-72
2023/09/23 03:11:55;;;;;;;3.67;2.92;;;;;;;;;;5032398;28;20076;-72
2023/09/23 03:14:45;;;;;;;3.55;2.80;;;;;;;;;;5030932;28;20480;-73
2023/09/23 03:17:09;;;;;;;5.82;2.85;;;;;;;;;;5029414;28;20067;-73
2023/09/23 03:19:36;;;;;;;4.25;3.25;;;;;;;;;;5033065;28;20535;-73
2023/09/23 03:22:02;;;;;;;6.65;3.60;;;;;;;;;;5033103;28;20041;-73
2023/09/23 03:24:29;;;;;;;5.25;3.50;;;;;;;;;;5031500;28;20251;-73
2023/09/23 03:26:58;;;;;;;8.38;4.95;;;;;;;;;;5033253;28;20083;-73
2023/09/23 03:29:28;;;;;;;9.95;4.53;;;;;;;;;;5013692;28;20049;-73
2023/09/23 03:31:55;;;;;;;6.93;4.40;;;;;;;;;;5029851;28;20083;-73
2023/09/23 03:34:22;;;;;;;6.20;4.70;;;;;;;;;;5031204;28;20053;-73
2023/09/23 03:36:48;;;;;;;7.57;4.75;;;;;;;;;;5033379;28;20049;-73
2023/09/23 03:39:17;;;;;;;6.25;5.47;;;;;;;;;;5034397;28;20130;-73
2023/09/23 03:41:49;;;;;;;7.82;5.88;;;;;;;;;;5031017;28;20172;-73
2023/09/23 03:44:15;;;;;;;6.97;6.10;;;;;;;;;;5033837;28;20162;-73
2023/09/23 03:46:50;;;;;;;8.05;6.88;;;;;;;;;;5029189;28;20075;-73
2023/09/23 03:49:17;;;;;;;8.13;6.78;;;;;;;;;;5027823;28;20044;-73
2023/09/23 03:51:43;;;;;;;12.30;8.05;;;;;;;;;;5031100;28;20051;-73
2023/09/23 03:54:11;;;;;;;11.25;8.18;;;;;;;;;;5030157;28;20558;-73
2023/09/23 03:56:40;;;;;;;11.98;8.77;;;;;;;;;;5031754;28;20246;-71
2023/09/23 03:59:06;;;;;;;11.65;8.23;;;;;;;;;;5032461;28;20051;-72
2023/09/23 04:01:33;;;;;;;10.88;8.80;;;;;;;;;;5031562;28;20052;-72
2023/09/23 04:04:01;;;;;;;10.10;8.63;;;;;;;;;;5013921;28;20055;-72
2023/09/23 04:06:28;;;;;;;10.75;8.43;;;;;;;;;;5018291;28;20045;-71
2023/09/23 04:08:55;;;;;;;14.35;8.73;;;;;;;;;;5032127;28;20033;-71
2023/09/23 04:11:21;;;;;;;14.38;9.85;;;;;;;;;;5031806;28;20057;-72
2023/09/23 04:13:47;;;;;;;13.80;10.02;;;;;;;;;;5012334;28;20060;-72
2023/09/23 04:16:13;;;;;;;12.95;10.02;;;;;;;;;;5032875;28;20045;-72
2023/09/23 04:18:42;;;;;;;16.73;11.73;;;;;;;;;;5030714;28;20461;-72
2023/09/23 04:21:09;;;;;;;13.95;10.15;;;;;;;;;;5027383;28;20425;-72
2023/09/23 04:23:35;;;;;;;13.27;10.20;;;;;;;;;;5035013;28;20041;-72
2023/09/23 04:26:03;;;;;;;12.80;10.13;;;;;;;;;;5032764;28;20044;-72
2023/09/23 04:28:29;;;;;;;15.63;11.02;;;;;;;;;;5033561;28;20047;-72
2023/09/23 04:30:57;;;;;;;18.27;11.40;;;;;;;;;;5032374;28;20055;-72
2023/09/23 04:33:27;;;;;;;17.08;11.57;;;;;;;;;;5033420;28;20877;-72
2023/09/23 04:35:54;;;;;;;19.20;12.35;;;;;;;;;;5031001;28;20163;-72
2023/09/23 04:38:20;;;;;;;23.63;11.32;;;;;;;;;;5028889;28;20114;-72
2023/09/23 04:40:47;;;;;;;15.85;12.23;;;;;;;;;;5029470;28;20056;-72
2023/09/23 04:43:13;;;;;;;14.00;10.80;;;;;;;;;;5030227;28;20091;-72
2023/09/23 04:45:39;;;;;;;18.98;12.88;;;;;;;;;;5030490;28;20099;-73
2023/09/23 04:48:06;;;;;;;16.88;12.15;;;;;;;;;;5028206;28;21021;-73
2023/09/23 04:50:33;;;;;;;16.10;13.30;;;;;;;;;;5026588;28;20056;-73
2023/09/23 04:52:59;;;;;;;29.15;13.30;;;;;;;;;;5032958;28;20052;-73
2023/09/23 04:55:25;;;;;;;21.67;13.18;;;;;;;;;;5029112;28;20131;-73
2023/09/23 04:57:51;;;;;;;16.35;12.32;;;;;;;;;;5031514;28;20107;-73
2023/09/23 05:00:21;;;;;;;17.63;11.85;;;;;;;;;;5018258;28;20053;-73
2023/09/23 05:02:48;;;;;;;19.98;13.48;;;;;;;;;;5029645;28;20885;-72
2023/09/23 05:05:15;;;;;;;15.07;11.98;;;;;;;;;;5025092;28;20114;-72
2023/09/23 05:07:41;;;;;;;19.70;12.60;;;;;;;;;;5026148;28;20205;-72
2023/09/23 05:10:07;;;;;;;16.70;11.85;;;;;;;;;;5031524;28;20033;-72
2023/09/23 05:12:34;;;;;;;16.70;12.95;;;;;;;;;;5030894;28;20189;-72
2023/09/23 05:15:00;;;;;;;18.75;11.80;;;;;;;;;;5031672;28;20064;-72
2023/09/23 05:17:28;;;;;;;18.02;12.25;;;;;;;;;;5028402;28;20059;-72
2023/09/23 05:19:54;;;;;;;19.38;12.80;;;;;;;;;;5030938;28;20047;-73
2023/09/23 05:22:20;;;;;;;14.88;11.70;;;;;;;;;;5030887;28;20041;-72
2023/09/23 05:24:47;;;;;;;17.50;12.90;;;;;;;;;;5027974;28;20048;-72
2023/09/23 05:27:17;;;;;;;18.88;12.50;;;;;;;;;;5030788;28;20773;-73
2023/09/23 05:29:44;;;;;;;17.52;12.90;;;;;;;;;;5032725;28;21102;-72
2023/09/23 05:32:11;;;;;;;15.93;12.10;;;;;;;;;;5032058;28;20040;-73
2023/09/23 05:34:39;;;;;;;16.27;11.80;;;;;;;;;;5030858;28;20041;-73
2023/09/23 05:37:14;;;;;;;14.27;11.48;;;;;;;;;;5031983;28;20072;-72
2023/09/23 05:39:45;;;;;;;16.00;11.57;;;;;;;;;;5030744;28;20051;-72
2023/09/23 05:42:13;;;;;;;15.27;10.77;;;;;;;;;;5030942;28;20339;-73
2023/09/23 05:44:39;;;;;;;15.20;10.90;;;;;;;;;;5015294;28;20438;-73
2023/09/23 05:47:05;;;;;;;13.68;10.82;;;;;;;;;;5030260;28;20041;-73
2023/09/23 05:49:31;;;;;;;14.50;11.18;;;;;;;;;;5029099;28;20044;-72
2023/09/23 05:51:57;;;;;;;15.60;10.00;;;;;;;;;;5012538;28;20094;-73
2023/09/23 05:54:23;;;;;;;15.30;10.80;;;;;;;;;;5029679;28;20149;-73
2023/09/23 05:56:49;;;;;;;13.10;10.23;;;;;;;;;;5028747;28;20098;-73
2023/09/23 05:59:15;;;;;;;13.38;10.65;;;;;;;;;;5023586;28;20086;-73
2023/09/23 06:01:42;;;;;;;14.93;11.10;;;;;;;;;;5029919;28;20076;-72
2023/09/23 06:04:11;;;;;;;12.63;10.52;;;;;;;;;;5026974;28;20168;-73
2023/09/23 06:06:40;;;;;;;12.32;10.45;;;;;;;;;;5027635;28;20072;-72
2023/09/23 06:09:07;;;;;;;13.60;10.15;;;;;;;;;;5044348;28;20067;-72
2023/09/23 06:11:34;;;;;;;16.55;9.77;;;;;;;;;;5030505;28;20103;-72
2023/09/23 06:14:00;;;;;;;12.57;9.90;;;;;;;;;;5028671;28;20060;-73
2023/09/23 06:16:26;;;;;;;18.38;11.05;;;;;;;;;;5028894;28;20045;-73
2023/09/23 06:18:52;;;;;;;17.02;11.65;;;;;;;;;;5035391;28;20048;-73
2023/09/23 06:21:18;;;;;;;16.05;10.30;;;;;;;;;;5030679;28;20084;-73
2023/09/23 06:23:45;;;;;;;19.92;11.68;;;;;;;;;;5027530;28;20047;-72
2023/09/23 06:26:11;;;;;;;14.57;10.55;;;;;;;;;;5031661;28;20310;-72
2023/09/23 06:28:37;;;;;;;16.40;12.02;;;;;;;;;;5029692;28;20199;-73
2023/09/23 06:31:03;;;;;;;16.73;11.88;;;;;;;;;;5028544;28;20676;-73
2023/09/23 06:33:30;;;;;;;15.73;11.82;;;;;;;;;;5028581;28;20047;-73
2023/09/23 06:35:56;;;;;;;18.60;12.60;;;;;;;;;;5012136;28;20044;-72
2023/09/23 06:38:22;;;;;;;19.50;12.32;;;;;;;;;;5028118;28;20149;-72
2023/09/23 06:40:48;;;;;;;18.23;11.50;;;;;;;;;;5030121;28;20122;-72
2023/09/23 06:43:14;;;;;;;19.00;13.30;;;;;;;;;;5030204;28;20048;-72
2023/09/23 06:45:40;;;;;;;17.85;12.88;;;;;;;;;;5030122;28;20131;-73
2023/09/23 06:48:06;;;;;;;17.20;13.70;;;;;;;;;;5028111;28;20121;-73
2023/09/23 06:50:32;;;;;;;17.50;13.70;;;;;;;;;;5034390;28;20069;-73
2023/09/23 06:52:58;;;;;;;19.83;14.07;;;;;;;;;;5030751;28;20053;-73
2023/09/23 06:55:25;;;;;;;17.55;14.73;;;;;;;;;;5027734;28;20036;-73
2023/09/23 06:57:51;;;;;;;19.88;14.07;;;;;;;;;;5030180;28;20045;-73
2023/09/23 07:00:18;;;;;;;22.33;13.40;;;;;;;;;;5030713;28;20038;-73
2023/09/23 07:02:44;;;;;;;16.60;13.98;;;;;;;;;;5017690;28;20388;-72
2023/09/23 07:05:10;;;;;;;19.25;13.32;;;;;;;;;;5027164;28;20098;-72
2023/09/23 07:07:36;;;;;;;22.83;14.57;;;;;;;;;;5026101;28;20667;-73
2023/09/23 07:10:04;;;;;;;19.67;15.07;;;;;;;;;;5028478;28;20141;-73
2023/09/23 07:12:30;;;;;;;23.70;16.33;;;;;;;;;;5026538;28;20605;-73
2023/09/23 07:14:56;;;;;;;23.77;17.85;;;;;;;;;;5027948;28;20094;-73
2023/09/23 07:17:22;;;;;;;23.02;17.30;;;;;;;;;;5025757;28;20042;-72
2023/09/23 07:19:48;;;;;;;25.15;19.42;;;;;;;;;;5029267;28;20759;-72
2023/09/23 07:22:14;;;;;;;26.10;18.35;;;;;;;;;;5025472;28;20490;-72
2023/09/23 07:24:40;;;;;;;27.67;20.55;;;;;;;;;;5027830;28;20135;-72
2023/09/23 07:27:06;;;;;;;30.20;22.70;;;;;;;;;;5028635;28;20051;-72
2023/09/23 07:29:33;;;;;;;36.97;22.85;;;;;;;;;;5030552;28;20782;-72
2023/09/23 07:31:59;;;;;;;30.02;22.33;;;;;;;;;;5024810;28;20048;-73
2023/09/23 07:34:25;;;;;;;31.85;23.10;;;;;;;;;;5027020;28;20045;-72
2023/09/23 07:36:51;;;;;;;32.00;24.30;;;;;;;;;;5024330;28;20382;-72
2023/09/23 07:39:17;;;;;;;26.98;19.52;;;;;;;;;;5028448;28;20044;-73
2023/09/23 07:41:43;;;;;;;32.28;24.40;;;;;;;;;;5037491;28;21376;-72
2023/09/23 07:44:11;;;;;;;36.47;23.10;;;;;;;;;;5032563;28;20062;-72
2023/09/23 07:46:37;;;;;;;31.75;22.08;;;;;;;;;;5032979;28;20057;-72
2023/09/23 07:49:03;;;;;;;33.92;21.55;;;;;;;;;;5034040;28;20515;-72
2023/09/23 07:51:30;;;;;;;34.03;24.63;;;;;;;;;;5033901;28;20045;-72
2023/09/23 07:53:56;;;;;;;35.97;24.83;;;;;;;;;;5036773;28;20233;-72
2023/09/23 07:56:22;;;;;;;30.52;19.98;;;;;;;;;;5034744;28;20102;-72
2023/09/23 07:58:48;;;;;;;35.75;22.98;;;;;;;;;;5036727;28;20090;-73
2023/09/23 08:01:14;;;;;;;25.13;18.02;;;;;;;;;;5032787;28;20036;-73
2023/09/23 08:03:40;;;;;;;29.75;19.27;;;;;;;;;;5035089;28;20484;-73
2023/09/23 08:06:07;;;;;;;36.83;19.67;;;;;;;;;;5018520;28;20914;-72
2023/09/23 08:08:33;;;;;;;23.98;17.70;;;;;;;;;;5033588;28;20045;-73
2023/09/23 08:10:59;;;;;;;22.48;17.17;;;;;;;;;;5020163;28;20061;-73
2023/09/23 08:13:26;;;;;;;25.58;17.80;;;;;;;;;;5034416;28;20477;-72
2023/09/23 08:15:57;;;;;;;23.73;18.05;;;;;;;;;;5033053;28;20134;-72
2023/09/23 08:18:23;;;;;;;23.30;18.13;;;;;;;;;;5017578;28;20049;-72
2023/09/23 08:20:56;;;;;;;20.35;16.48;;;;;;;;;;5014308;28;20501;-73
2023/09/23 08:23:22;;;;;;;23.13;16.95;;;;;;;;;;5032214;28;20049;-73
2023/09/23 08:25:48;;;;;;;20.98;15.60;;;;;;;;;;5032361;28;20106;-73
2023/09/23 08:28:15;;;;;;;22.63;16.67;;;;;;;;;;5031003;28;20095;-73
2023/09/23 08:30:45;;;;;;;25.02;18.33;;;;;;;;;;5031899;28;20045;-73
2023/09/23 08:33:12;;;;;;;27.15;17.27;;;;;;;;;;5031103;28;20049;-73
2023/09/23 08:35:38;;;;;;;20.35;15.32;;;;;;;;;;5021610;28;20037;-73
2023/09/23 08:38:04;;;;;;;23.35;14.35;;;;;;;;;;5026552;28;20182;-73
2023/09/23 08:40:34;;;;;;;18.83;15.40;;;;;;;;;;5026945;28;21692;-73
2023/09/23 08:43:04;;;;;;;22.02;15.65;;;;;;;;;;5027334;28;20041;-73
2023/09/23 08:45:30;;;;;;;19.55;15.40;;;;;;;;;;5027238;28;20052;-73
2023/09/23 08:47:57;;;;;;;21.17;13.95;;;;;;;;;;5018085;28;20550;-73
2023/09/23 08:50:25;;;;;;;17.15;13.85;;;;;;;;;;5027022;28;20128;-73
2023/09/23 08:52:55;;;;;;;18.35;13.98;;;;;;;;;;5020865;28;20712;-73
2023/09/23 08:55:22;;;;;;;18.55;13.75;;;;;;;;;;5021210;28;20045;-73
2023/09/23 08:57:49;;;;;;;16.27;13.20;;;;;;;;;;5016567;28;20098;-73
2023/09/23 09:00:17;;;;;;;16.98;12.43;;;;;;;;;;5021536;28;20357;-74
2023/09/23 09:02:43;;;;;;;13.30;11.40;;;;;;;;;;5024786;28;20053;-74
2023/09/23 09:05:09;;;;;;;11.57;10.38;;;;;;;;;;5025744;28;20049;-73
2023/09/23 09:07:36;;;;;;;11.93;9.68;;;;;;;;;;5029230;28;20551;-74
2023/09/23 09:10:02;;;;;;;13.90;10.55;;;;;;;;;;5009856;28;20045;-74
2023/09/23 09:12:29;;;;;;;14.35;11.05;;;;;;;;;;5023155;28;20057;-73
2023/09/23 09:14:55;;;;;;;15.65;11.20;;;;;;;;;;5026949;28;20049;-72
2023/09/23 09:17:21;;;;;;;12.55;11.00;;;;;;;;;;5024389;28;20122;-73
2023/09/23 09:19:49;;;;;;;13.00;9.65;;;;;;;;;;5027439;28;20069;-73
2023/09/23 09:22:16;;;;;;;10.80;9.63;;;;;;;;;;5021108;28;20527;-73
2023/09/23 09:24:42;;;;;;;12.48;9.20;;;;;;;;;;5024432;28;21208;-73
2023/09/23 09:27:14;;;;;;;12.63;9.43;;;;;;;;;;5027032;28;20068;-73
2023/09/23 09:29:44;;;;;;;13.43;9.05;;;;;;;;;;5024813;28;20060;-73
2023/09/23 09:32:11;;;;;;;10.40;8.68;;;;;;;;;;5000408;28;20151;-73
2023/09/23 09:34:40;;;;;;;12.48;8.98;;;;;;;;;;5025723;28;20075;-72
2023/09/23 09:37:07;;;;;;;10.73;8.77;;;;;;;;;;5023923;28;20087;-72
2023/09/23 09:39:36;;;;;;;8.93;7.25;;;;;;;;;;5008721;28;20045;-72
2023/09/23 09:42:03;;;;;;;9.00;7.18;;;;;;;;;;5027228;28;20055;-73
2023/09/23 09:44:29;;;;;;;11.93;6.22;;;;;;;;;;5024362;28;20040;-73
2023/09/23 09:46:56;;;;;;;10.35;6.97;;;;;;;;;;5022426;28;20049;-73
2023/09/23 09:49:23;;;;;;;8.82;6.25;;;;;;;;;;5004002;28;20559;-73
2023/09/23 09:51:50;;;;;;;7.68;5.68;;;;;;;;;;5017805;28;20106;-73
2023/09/23 09:54:21;;;;;;;10.07;5.85;;;;;;;;;;5025218;28;20078;-73
2023/09/23 09:56:48;;;;;;;6.60;5.00;;;;;;;;;;5028227;28;20044;-73
2023/09/23 09:59:27;;;;;;;7.43;5.18;;;;;;;;;;5026707;28;21058;-72
2023/09/23 10:01:57;;;;;;;6.75;4.90;;;;;;;;;;5009682;28;20056;-73
2023/09/23 10:04:23;;;;;;;7.47;4.70;;;;;;;;;;5028330;28;20131;-73
2023/09/23 10:06:59;;;;;;;6.70;4.63;;;;;;;;;;5029757;28;22093;-73
2023/09/23 10:09:28;;;;;;;6.30;4.03;;;;;;;;;;5029543;28;20409;-74
2023/09/23 10:11:56;;;;;;;9.02;3.92;;;;;;;;;;5018379;28;20053;-73
2023/09/23 10:14:22;;;;;;;7.85;3.88;;;;;;;;;;5010613;28;20047;-73
2023/09/23 10:16:52;;;;;;;6.95;3.80;;;;;;;;;;5028484;28;20052;-73
2023/09/23 10:19:32;;;;;;;5.50;3.42;;;;;;;;;;5029629;28;20152;-73
2023/09/23 10:22:18;;;;;;;7.13;3.90;;;;;;;;;;5031269;28;20044;-73
2023/09/23 10:24:44;;;;;;;7.75;3.90;;;;;;;;;;5029043;28;20110;-73
2023/09/23 10:27:11;;;;;;;4.18;2.58;;;;;;;;;;5027417;28;20127;-73
2023/09/23 10:29:45;;;;;;;4.30;2.90;;;;;;;;;;5020309;28;20048;-72
2023/09/23 10:32:15;;;;;;;4.53;2.95;;;;;;;;;;5031388;28;20162;-73
2023/09/23 10:34:45;;;;;;;5.38;2.90;;;;;;;;;;5014233;28;20081;-73
2023/09/23 10:37:11;;;;;;;3.90;2.70;;;;;;;;;;5031175;28;20434;-73
2023/09/23 10:39:43;;;;;;;4.63;3.17;;;;;;;;;;5020125;28;20445;-73
2023/09/23 10:42:15;;;;;;;11.20;3.38;;;;;;;;;;5004732;28;20051;-73
2023/09/23 10:44:41;;;;;;;4.10;2.38;;;;;;;;;;5032991;28;20037;-73
2023/09/23 10:47:09;;;;;;;4.38;2.25;;;;;;;;;;5030789;28;20049;-73
2023/09/23 10:49:35;;;;;;;4.07;2.38;;;;;;;;;;5031878;28;20051;-73
2023/09/23 10:52:02;;;;;;;3.80;2.92;;;;;;;;;;5029348;28;20041;-73
2023/09/23 10:54:29;;;;;;;4.53;2.22;;;;;;;;;;5014479;28;20127;-73
2023/09/23 10:56:55;;;;;;;5.10;2.33;;;;;;;;;;5031237;28;20086;-73
2023/09/23 10:59:21;;;;;;;5.25;2.47;;;;;;;;;;5031008;28;20052;-72
2023/09/23 11:01:49;;;;;;;4.90;1.83;;;;;;;;;;5032702;28;20048;-72
2023/09/23 11:04:16;;;;;;;3.05;2.00;;;;;;;;;;5031368;28;20065;-73
2023/09/23 11:06:42;;;;;;;3.55;1.58;;;;;;;;;;5033933;28;20076;-73
2023/09/23 11:09:08;;;;;;;3.80;1.63;;;;;;;;;;5030334;28;20047;-74
2023/09/23 11:11:36;;;;;;;2.58;1.30;;;;;;;;;;5030264;28;20057;-72
2023/09/23 11:14:02;;;;;;;1.95;1.05;;;;;;;;;;5030278;28;20049;-73
2023/09/23 11:16:28;;;;;;;2.95;1.20;;;;;;;;;;5031739;28;20045;-73
2023/09/23 11:18:56;;;;;;;3.92;1.15;;;;;;;;;;5036571;28;20037;-73
2023/09/23 11:21:23;;;;;;;2.55;1.45;;;;;;;;;;5037594;28;20045;-73
2023/09/23 11:23:58;;;;;;;3.17;2.15;;;;;;;;;;5031739;28;20193;-73
2023/09/23 11:26:25;;;;;;;4.40;2.13;;;;;;;;;;5032611;28;20045;-73
2023/09/23 11:28:53;;;;;;;5.82;3.08;;;;;;;;;;5034078;28;20049;-72
2023/09/23 11:31:19;;;;;;;7.07;2.80;;;;;;;;;;5029803;28;20051;-72
2023/09/23 11:33:45;;;;;;;6.05;3.08;;;;;;;;;;5028768;28;20037;-73
2023/09/23 11:36:11;;;;;;;5.15;3.28;;;;;;;;;;5034019;28;20048;-73
2023/09/23 11:38:37;;;;;;;3.90;3.15;;;;;;;;;;5034440;28;20045;-72
2023/09/23 11:41:04;;;;;;;6.22;3.88;;;;;;;;;;5033932;28;20039;-72
2023/09/23 11:43:30;;;;;;;9.43;4.72;;;;;;;;;;5033724;28;20099;-72
2023/09/23 11:45:56;;;;;;;6.18;5.07;;;;;;;;;;5034075;28;20155;-72
2023/09/23 11:48:22;;;;;;;8.93;5.57;;;;;;;;;;5032572;28;20550;-72
2023/09/23 11:50:49;;;;;;;8.60;5.78;;;;;;;;;;5035623;28;21276;-72
2023/09/23 11:53:15;;;;;;;7.82;4.05;;;;;;;;;;5016157;28;20090;-72
2023/09/23 11:55:42;;;;;;;8.73;4.00;;;;;;;;;;5031143;28;20053;-72
2023/09/23 11:58:08;;;;;;;10.05;5.32;;;;;;;;;;5031819;28;20065;-71
2023/09/23 12:00:34;;;;;;;17.15;5.85;;;;;;;;;;5031408;28;20060;-71
2023/09/23 12:03:01;;;;;;;13.50;5.97;;;;;;;;;;5032003;28;20138;-71
2023/09/23 12:05:30;;;;;;;10.68;6.88;;;;;;;;;;5033413;28;20048;-71
2023/09/23 12:07:58;;;;;;;6.20;3.15;;;;;;;;;;4985749;28;22329;-72
2023/09/23 12:10:25;;;;;;;6.93;3.22;;;;;;;;;;5027553;28;20611;-72
2023/09/23 12:12:51;;;;;;;4.28;2.88;;;;;;;;;;5032950;28;20057;-72
2023/09/23 12:15:17;;;;;;;4.00;2.53;;;;;;;;;;5032026;28;20056;-72
2023/09/23 12:17:43;;;;;;;5.32;2.83;;;;;;;;;;5035205;28;20480;-72
2023/09/23 12:20:11;;;;;;;7.30;2.75;;;;;;;;;;5031242;28;20068;-72
2023/09/23 12:22:41;;;;;;;5.03;3.05;;;;;;;;;;5031093;28;20560;-72
2023/09/23 12:25:07;;;;;;;6.57;3.53;;;;;;;;;;5032069;28;20079;-72
2023/09/23 12:27:33;;;;;;;6.45;3.72;;;;;;;;;;5031201;28;20148;-72
2023/09/23 12:30:00;;;;;;;4.75;3.17;;;;;;;;;;5029261;28;20048;-72
2023/09/23 12:32:26;;;;;;;6.32;2.85;;;;;;;;;;5029145;28;20146;-72
2023/09/23 12:34:52;;;;;;;5.72;1.65;;;;;;;;;;5027244;28;20048;-71
2023/09/23 12:37:18;;;;;;;3.30;2.00;;;;;;;;;;5026778;28;20126;-72
2023/09/23 12:39:44;;;;;;;1.63;1.45;;;;;;;;;;5023777;28;20052;-72
2023/09/23 12:42:11;;;;;;;4.15;1.58;;;;;;;;;;5010130;28;20056;-72
2023/09/23 12:44:37;;;;;;;2.65;1.70;;;;;;;;;;5026923;28;20132;-72
2023/09/23 12:47:03;;;;;;;2.67;1.15;;;;;;;;;;4998123;28;20049;-72
2023/09/23 12:49:30;;;;;;;4.13;1.30;;;;;;;;;;5026331;28;20072;-73
2023/09/23 12:51:56;;;;;;;2.92;1.02;;;;;;;;;;5024038;28;20053;-73
2023/09/23 12:54:22;;;;;;;3.50;1.30;;;;;;;;;;5022923;28;20045;-73
2023/09/23 12:56:48;;;;;;;1.58;0.98;;;;;;;;;;5029334;28;20040;-73
2023/09/23 12:59:14;;;;;;;3.83;1.10;;;;;;;;;;5030730;28;20050;-73
2023/09/23 13:01:40;;;;;;;2.70;1.20;;;;;;;;;;5030010;28;20048;-73
2023/09/23 13:04:06;;;;;;;3.00;0.98;;;;;;;;;;5029546;28;20956;-73
2023/09/23 13:06:32;;;;;;;2.08;0.88;;;;;;;;;;5026041;28;20147;-73
2023/09/23 13:08:58;;;;;;;1.85;0.80;;;;;;;;;;5024242;28;20048;-73
2023/09/23 13:11:24;;;;;;;1.02;0.70;;;;;;;;;;5023772;28;20369;-73
2023/09/23 13:13:51;;;;;;;1.13;0.63;;;;;;;;;;4995943;28;20049;-73
2023/09/23 13:16:17;;;;;;;1.58;0.73;;;;;;;;;;5020209;28;20552;-73
2023/09/23 13:18:43;;;;;;;1.58;0.75;;;;;;;;;;5023277;28;20262;-73
2023/09/23 13:21:10;;;;;;;3.03;1.33;;;;;;;;;;5023518;28;20144;-73
2023/09/23 13:23:38;;;;;;;3.15;1.17;;;;;;;;;;5027548;28;20043;-73
2023/09/23 13:26:05;;;;;;;2.30;1.05;;;;;;;;;;5024651;28;21489;-74
2023/09/23 13:28:31;;;;;;;3.60;1.20;;;;;;;;;;5024175;28;20049;-74
2023/09/23 13:30:57;;;;;;;3.50;0.88;;;;;;;;;;5030452;28;20043;-75
2023/09/23 13:33:26;;;;;;;3.92;0.93;;;;;;;;;;5033806;28;20045;-74
2023/09/23 13:35:52;;;;;;;2.22;0.82;;;;;;;;;;5030716;28;20936;-75
2023/09/23 13:38:18;;;;;;;4.35;1.50;;;;;;;;;;5034557;28;20064;-74
2023/09/23 13:40:44;;;;;;;2.35;0.80;;;;;;;;;;5036581;28;20483;-74
2023/09/23 13:43:10;;;;;;;2.28;0.90;;;;;;;;;;5033873;28;20056;-73
2023/09/23 13:45:37;;;;;;;2.58;1.02;;;;;;;;;;5033794;28;20576;-72
2023/09/23 13:48:05;;;;;;;2.22;0.95;;;;;;;;;;5033397;28;20049;-74
2023/09/23 13:50:31;;;;;;;4.65;0.93;;;;;;;;;;5029871;28;20060;-74
2023/09/23 13:52:57;;;;;;;2.50;1.00;;;;;;;;;;5033882;28;22088;-74
2023/09/23 13:55:23;;;;;;;1.55;1.13;;;;;;;;;;5016884;28;20040;-74
2023/09/23 13:57:50;;;;;;;3.03;1.45;;;;;;;;;;5032568;28;20080;-74
2023/09/23 14:00:16;;;;;;;3.42;1.35;;;;;;;;;;5034176;28;20064;-74
2023/09/23 14:02:43;;;;;;;0.98;0.88;;;;;;;;;;5034245;28;22349;-74
2023/09/23 14:05:10;;;;;;;2.05;1.00;;;;;;;;;;5033770;28;20068;-74
2023/09/23 14:07:37;;;;;;;4.15;1.50;;;;;;;;;;5003677;28;20070;-74
2023/09/23 14:10:04;;;;;;;2.70;1.27;;;;;;;;;;5035916;28;20041;-74
2023/09/23 14:12:30;;;;;;;3.22;1.27;;;;;;;;;;5033672;28;20164;-74
2023/09/23 14:14:56;;;;;;;3.50;1.27;;;;;;;;;;5034267;28;20063;-74
2023/09/23 14:17:22;;;;;;;6.05;1.13;;;;;;;;;;5033007;28;20048;-74
2023/09/23 14:19:51;;;;;;;4.22;0.95;;;;;;;;;;5035100;28;20045;-74
2023/09/23 14:22:17;;;;;;;4.40;1.20;;;;;;;;;;5015748;28;20049;-74
2023/09/23 14:24:44;;;;;;;4.80;1.52;;;;;;;;;;5035820;28;22207;-74
2023/09/23 14:27:10;;;;;;;3.55;1.00;;;;;;;;;;5035073;28;20242;-74
2023/09/23 14:29:36;;;;;;;1.95;1.00;;;;;;;;;;5034438;28;20059;-74
2023/09/23 14:32:05;;;;;;;4.38;1.00;;;;;;;;;;5016081;28;20044;-74